Quick Links (Output Below):   Max & Min Temps   /   Climate Reports   /   Zone Forecasts
River Forecasts   /   Forestry Forecasts   /   Aviation Forecasts   /   Radars   /   Features

Terminal Aerodrome Forecast (Pine Bluff)

Pick a Site:
Arkadelphia | El Dorado | Fayetteville | Fort Smith | Harrison | Highfill | Hot Springs | Jonesboro
Little Rock | Monticello | Mountain Home | Pine Bluff | Texarkana
 Forecast 

KPBF 040537Z 0406/0506 22007KT P6SM -RA VCTS SCT035CB BKN050 OVC100
      TEMPO 0406/0408 VRB10G25KT 3SM TSRA BR BKN025CB OVC050
     FM040800 22005KT P6SM VCSH BKN035 OVC050
     FM041500 24007KT P6SM VCSH BKN035 OVC100
     FM041900 24007KT P6SM VCTS SCT035CB BKN100 OVC250=


 Latest METARs (Observations) 
How to Decode METARs
08Z KPBF 040753Z AUTO 22007KT 10SM BKN095 23/22 A2992 RMK AO2 LTG DSNT
         SE-SW RAE08 SLP129 P0000 T02280217
         
07Z KPBF 040653Z AUTO 24007KT 10SM -RA FEW070 FEW095 SCT120 23/22
         A2992 RMK AO2 LTG DSNT SE-SW RAB0557 SLP128 P0002
         T02280217
         
06Z KPBF 040553Z AUTO 25005KT 10SM VCTS FEW085 FEW110 24/23 A2990 RMK
         AO2 LTG DSNT SW AND W SLP123 T02440228 10244 20228 402670228
         58010
         
05Z KPBF 040453Z AUTO 24005KT 9SM CLR 24/23 A2992 RMK AO2 LTG DSNT NW
         SLP129 T02440233
         
03Z KPBF 040253Z AUTO 20004KT 9SM CLR 23/22 A2993 RMK AO2 SLP133
         T02280222 53010
         
02Z KPBF 040153Z AUTO 20004KT 10SM BKN110 23/22 A2991 RMK AO2 SLP124
         T02330222
         
01Z KPBF 040053Z AUTO 22005KT 10SM CLR 24/22 A2990 RMK AO2 SLP122
         T02390222
         
00Z KPBF 032353Z AUTO 20005KT 10SM CLR 24/22 A2990 RMK AO2 RAE01
         SLP122 P0000 60065 T02390222 10250 20228 58015
         
***** Today's Observations (Above) *****


21Z KPBF 032053Z AUTO 25010G17KT 8SM -RA FEW013 BKN065 OVC100 23/21
         A2994 RMK AO2 LTG DSNT S AND SW TSB30E45 SLP136 P0022 60052
         T02330211 55009
         
19Z KPBF 031853Z AUTO 20007KT 1 3/4SM VCTS RA BR FEW007 BKN038 OVC100
         23/23 A2997 RMK AO2 LTG DSNT W SLP145 P0023 T02330228
         
***** Yesterday's Observations (Above) *****


Back to Main Page
http://www.srh.noaa.gov/lzk/qfcst.php

USA.gov is the U.S. government's official web portal to all federal, state and local government web resources and services.